Time;durP1;ratioP1;P1;durP2;ratioP2;P2;SDS_P1;SDS_P2;PMS_P1;PMS_P2;Temp;Humidity;BMP_temperature;BMP_pressure;BME280_temperature;BME280_humidity;BME280_pressure;Samples;Min_cycle;Max_cycle;Signal;HPM_P1;HPM_P2
2023/04/21 00:02:16;;;;;;;8.93;7.77;;;;;;;;;;5066504;28;20180;-54
2023/04/21 00:04:44;;;;;;;8.13;7.33;;;;;;;;;;5066032;28;20196;-54
2023/04/21 00:07:10;;;;;;;9.03;8.13;;;;;;;;;;5066359;28;20180;-54
2023/04/21 00:09:36;;;;;;;8.60;7.67;;;;;;;;;;5063516;28;20169;-54
2023/04/21 00:12:03;;;;;;;9.50;8.10;;;;;;;;;;5061337;28;20558;-54
2023/04/21 00:14:29;;;;;;;9.10;8.20;;;;;;;;;;5058711;28;20284;-55
2023/04/21 00:16:55;;;;;;;9.13;8.23;;;;;;;;;;5064889;28;20177;-55
2023/04/21 00:19:22;;;;;;;9.30;8.27;;;;;;;;;;5066433;28;20184;-54
2023/04/21 00:21:48;;;;;;;9.53;8.53;;;;;;;;;;5066145;28;20512;-54
2023/04/21 00:24:15;;;;;;;9.53;8.50;;;;;;;;;;5064117;28;20240;-54
2023/04/21 00:26:41;;;;;;;12.13;8.63;;;;;;;;;;5061156;28;20184;-54
2023/04/21 00:29:07;;;;;;;9.70;8.70;;;;;;;;;;5060493;28;20217;-54
2023/04/21 00:31:34;;;;;;;9.43;8.43;;;;;;;;;;5042560;28;20203;-54
2023/04/21 00:34:00;;;;;;;9.70;8.70;;;;;;;;;;5066995;28;20180;-55
2023/04/21 00:36:27;;;;;;;10.63;9.30;;;;;;;;;;5047827;28;20286;-55
2023/04/21 00:38:53;;;;;;;11.60;9.10;;;;;;;;;;5066199;28;20180;-54
2023/04/21 00:41:20;;;;;;;10.47;8.80;;;;;;;;;;5060745;28;20242;-54
2023/04/21 00:44:04;;;;;;;10.30;9.07;;;;;;;;;;5067078;28;20211;-54
2023/04/21 00:46:30;;;;;;;11.40;9.17;;;;;;;;;;5064487;28;20633;-54
2023/04/21 00:48:57;;;;;;;13.63;9.63;;;;;;;;;;5066736;28;20177;-55
2023/04/21 00:51:24;;;;;;;11.37;9.77;;;;;;;;;;5066116;28;20190;-54
2023/04/21 00:53:50;;;;;;;10.23;8.70;;;;;;;;;;5063071;28;20224;-55
2023/04/21 00:56:17;;;;;;;9.30;8.40;;;;;;;;;;5056250;28;20178;-54
2023/04/21 00:58:45;;;;;;;11.77;9.37;;;;;;;;;;5064782;28;20183;-54
2023/04/21 01:01:13;;;;;;;10.60;9.20;;;;;;;;;;5063556;28;20184;-54
2023/04/21 01:03:39;;;;;;;10.13;9.07;;;;;;;;;;5069109;28;20184;-54
2023/04/21 01:06:05;;;;;;;15.73;9.73;;;;;;;;;;5068912;28;20177;-55
2023/04/21 01:08:32;;;;;;;11.17;9.70;;;;;;;;;;5052513;28;20180;-54
2023/04/21 01:10:58;;;;;;;10.83;9.63;;;;;;;;;;5066151;28;20253;-54
2023/04/21 01:13:24;;;;;;;11.03;9.03;;;;;;;;;;5069019;28;20204;-52
2023/04/21 01:15:50;;;;;;;10.60;9.50;;;;;;;;;;5069962;28;20568;-52
2023/04/21 01:18:17;;;;;;;10.50;9.43;;;;;;;;;;5067125;28;20658;-51
2023/04/21 01:20:43;;;;;;;10.77;9.43;;;;;;;;;;5068492;28;20541;-52
2023/04/21 01:23:09;;;;;;;10.47;9.37;;;;;;;;;;5069106;28;20236;-52
2023/04/21 01:25:36;;;;;;;10.20;9.20;;;;;;;;;;5067550;28;20176;-52
2023/04/21 01:28:02;;;;;;;12.43;9.07;;;;;;;;;;5070366;28;20180;-53
2023/04/21 01:30:28;;;;;;;10.53;9.47;;;;;;;;;;5068143;28;20180;-53
2023/04/21 01:32:54;;;;;;;10.73;9.50;;;;;;;;;;5064300;28;20208;-52
2023/04/21 01:35:20;;;;;;;12.15;10.85;;;;;;;;;;5064814;28;20421;-53
2023/04/21 01:37:46;;;;;;;10.47;9.43;;;;;;;;;;5069509;28;20176;-53
2023/04/21 01:40:13;;;;;;;12.73;10.80;;;;;;;;;;5067845;28;20177;-53
2023/04/21 01:42:40;;;;;;;10.10;8.70;;;;;;;;;;5065393;28;20180;-53
2023/04/21 01:45:06;;;;;;;9.40;8.37;;;;;;;;;;5068395;28;20276;-55
2023/04/21 01:47:32;;;;;;;11.37;10.10;;;;;;;;;;5058167;28;20192;-53
2023/04/21 01:49:59;;;;;;;11.10;9.57;;;;;;;;;;5064436;28;20175;-52
2023/04/21 01:52:25;;;;;;;12.03;9.23;;;;;;;;;;5061618;28;20326;-53
2023/04/21 01:54:51;;;;;;;10.13;9.03;;;;;;;;;;5070507;28;20172;-53
2023/04/21 01:57:17;;;;;;;10.67;9.07;;;;;;;;;;5068563;28;20241;-53
2023/04/21 01:59:43;;;;;;;11.90;10.50;;;;;;;;;;5044350;28;20214;-52
2023/04/21 02:02:09;;;;;;;10.77;9.60;;;;;;;;;;5068379;28;20594;-52
2023/04/21 02:04:36;;;;;;;11.77;9.33;;;;;;;;;;5069130;28;20603;-53
2023/04/21 02:07:02;;;;;;;9.97;8.97;;;;;;;;;;5070566;28;20271;-53
2023/04/21 02:09:28;;;;;;;11.30;9.50;;;;;;;;;;5069137;28;20191;-53
2023/04/21 02:11:57;;;;;;;14.00;10.80;;;;;;;;;;5067852;28;20208;-53
2023/04/21 02:14:24;;;;;;;10.90;9.57;;;;;;;;;;5069507;28;20693;-53
2023/04/21 02:16:50;;;;;;;10.77;9.20;;;;;;;;;;5068005;28;20183;-53
2023/04/21 02:19:16;;;;;;;13.20;9.80;;;;;;;;;;5067287;28;20171;-53
2023/04/21 02:21:42;;;;;;;12.77;10.43;;;;;;;;;;5065753;28;20176;-53
2023/04/21 02:24:08;;;;;;;10.33;8.93;;;;;;;;;;5069531;28;20299;-53
2023/04/21 02:26:34;;;;;;;12.73;10.57;;;;;;;;;;5066662;28;20192;-53
2023/04/21 02:29:01;;;;;;;11.77;9.20;;;;;;;;;;5069302;28;20183;-53
2023/04/21 02:31:27;;;;;;;12.40;9.53;;;;;;;;;;5068470;28;20177;-53
2023/04/21 02:33:53;;;;;;;13.43;10.43;;;;;;;;;;5068503;28;20636;-53
2023/04/21 02:36:20;;;;;;;12.53;10.63;;;;;;;;;;5068879;28;20234;-53
2023/04/21 02:38:46;;;;;;;13.50;11.37;;;;;;;;;;5069934;28;20180;-53
2023/04/21 02:41:12;;;;;;;12.13;10.43;;;;;;;;;;5066938;28;20173;-53
2023/04/21 02:43:38;;;;;;;12.17;10.87;;;;;;;;;;5068086;28;20192;-52
2023/04/21 02:46:07;;;;;;;13.77;11.07;;;;;;;;;;5068282;28;20204;-53
2023/04/21 02:48:34;;;;;;;11.60;9.53;;;;;;;;;;5064640;28;20564;-53
2023/04/21 02:51:00;;;;;;;13.43;11.40;;;;;;;;;;5067502;28;20668;-53
2023/04/21 02:53:26;;;;;;;13.03;11.27;;;;;;;;;;5064433;28;20208;-54
2023/04/21 02:55:52;;;;;;;13.40;10.67;;;;;;;;;;5067960;28;20592;-53
2023/04/21 02:58:18;;;;;;;15.90;11.23;;;;;;;;;;5064182;28;20180;-53
2023/04/21 03:00:45;;;;;;;14.97;11.37;;;;;;;;;;5051202;28;20169;-53
2023/04/21 03:03:11;;;;;;;15.07;12.73;;;;;;;;;;5064624;28;20187;-53
2023/04/21 03:05:37;;;;;;;13.17;11.10;;;;;;;;;;5068667;28;20204;-53
2023/04/21 03:08:03;;;;;;;10.83;9.63;;;;;;;;;;5059077;28;20176;-53
2023/04/21 03:10:29;;;;;;;15.40;10.90;;;;;;;;;;5068318;28;20575;-54
2023/04/21 03:12:55;;;;;;;13.10;11.47;;;;;;;;;;5067558;28;20240;-54
2023/04/21 03:15:22;;;;;;;13.33;10.90;;;;;;;;;;5069308;28;20176;-54
2023/04/21 03:17:48;;;;;;;14.07;10.93;;;;;;;;;;5064971;28;20187;-54
2023/04/21 03:20:15;;;;;;;14.60;11.53;;;;;;;;;;5068474;28;20180;-53
2023/04/21 03:22:41;;;;;;;13.13;10.73;;;;;;;;;;5066631;28;20224;-53
2023/04/21 03:25:07;;;;;;;12.57;10.33;;;;;;;;;;5069276;28;20176;-54
2023/04/21 03:27:34;;;;;;;13.13;11.07;;;;;;;;;;5067179;28;20234;-54
2023/04/21 03:30:00;;;;;;;13.67;11.03;;;;;;;;;;5068387;28;20195;-54
2023/04/21 03:32:26;;;;;;;13.33;10.87;;;;;;;;;;5065278;28;20204;-54
2023/04/21 03:34:53;;;;;;;14.27;11.30;;;;;;;;;;5065705;28;20172;-54
2023/04/21 03:37:19;;;;;;;11.83;10.33;;;;;;;;;;5068198;28;20215;-54
2023/04/21 03:39:45;;;;;;;15.23;11.30;;;;;;;;;;5062559;28;20709;-54
2023/04/21 03:42:11;;;;;;;14.43;10.87;;;;;;;;;;5064511;28;20188;-54
2023/04/21 03:44:37;;;;;;;13.00;9.83;;;;;;;;;;5067799;28;20191;-54
2023/04/21 03:47:03;;;;;;;13.60;11.03;;;;;;;;;;5065774;28;20203;-54
2023/04/21 03:49:29;;;;;;;14.80;10.80;;;;;;;;;;5064950;28;20222;-54
2023/04/21 03:51:55;;;;;;;16.20;11.33;;;;;;;;;;5068224;28;20242;-54
2023/04/21 03:54:22;;;;;;;14.03;10.27;;;;;;;;;;5068452;28;20323;-54
2023/04/21 03:56:48;;;;;;;12.20;9.70;;;;;;;;;;5066899;28;20526;-55
2023/04/21 03:59:14;;;;;;;13.07;11.07;;;;;;;;;;5068174;28;20180;-58
2023/04/21 04:01:41;;;;;;;12.33;10.10;;;;;;;;;;5065573;28;20169;-54
2023/04/21 04:04:07;;;;;;;12.93;10.70;;;;;;;;;;5063851;28;20745;-54
2023/04/21 04:06:34;;;;;;;13.10;10.53;;;;;;;;;;5066314;28;20177;-54
2023/04/21 04:09:03;;;;;;;12.67;10.20;;;;;;;;;;5058898;28;20177;-54
2023/04/21 04:11:29;;;;;;;13.40;10.27;;;;;;;;;;5063294;28;20749;-54
2023/04/21 04:13:55;;;;;;;11.90;10.03;;;;;;;;;;5065578;28;20772;-54
2023/04/21 04:16:21;;;;;;;12.53;10.53;;;;;;;;;;5067556;28;20263;-54
2023/04/21 04:18:49;;;;;;;11.90;9.63;;;;;;;;;;5065277;28;20180;-54
2023/04/21 04:21:15;;;;;;;12.93;10.77;;;;;;;;;;5059642;28;20168;-54
2023/04/21 04:23:41;;;;;;;12.23;9.80;;;;;;;;;;5064702;28;20251;-54
2023/04/21 04:26:08;;;;;;;15.87;10.93;;;;;;;;;;5068504;28;20322;-54
2023/04/21 04:28:34;;;;;;;11.83;9.37;;;;;;;;;;5059782;28;20187;-54
2023/04/21 04:31:01;;;;;;;12.13;9.63;;;;;;;;;;5066747;28;20624;-54
2023/04/21 04:33:28;;;;;;;12.23;10.13;;;;;;;;;;5062678;28;20563;-54
2023/04/21 04:35:54;;;;;;;15.57;10.87;;;;;;;;;;5064535;28;20531;-53
2023/04/21 04:38:21;;;;;;;13.80;10.93;;;;;;;;;;5069193;28;20198;-54
2023/04/21 04:40:57;;;;;;;13.47;10.17;;;;;;;;;;5069786;28;20185;-54
2023/04/21 04:43:24;;;;;;;11.83;9.73;;;;;;;;;;5053988;28;20184;-54
2023/04/21 04:45:50;;;;;;;11.90;10.27;;;;;;;;;;5067423;28;20176;-53
2023/04/21 04:48:16;;;;;;;14.63;10.83;;;;;;;;;;5066356;28;20269;-53
2023/04/21 04:50:43;;;;;;;13.70;10.90;;;;;;;;;;5065819;28;20205;-54
2023/04/21 04:53:09;;;;;;;12.43;10.27;;;;;;;;;;5049922;28;20208;-60
2023/04/21 04:55:35;;;;;;;13.77;10.73;;;;;;;;;;5063198;28;20286;-53
2023/04/21 04:58:02;;;;;;;11.97;9.40;;;;;;;;;;5067699;28;20225;-53
2023/04/21 05:00:28;;;;;;;13.37;10.53;;;;;;;;;;5060528;28;20181;-53
2023/04/21 05:02:54;;;;;;;12.00;10.47;;;;;;;;;;5058531;28;20177;-53
2023/04/21 05:05:21;;;;;;;11.80;9.57;;;;;;;;;;5062834;28;20631;-53
2023/04/21 05:07:47;;;;;;;12.93;10.73;;;;;;;;;;5066950;28;20188;-53
2023/04/21 05:10:13;;;;;;;11.03;9.50;;;;;;;;;;5057210;28;20660;-54
2023/04/21 05:12:39;;;;;;;12.13;10.60;;;;;;;;;;5042139;28;20224;-53
2023/04/21 05:15:06;;;;;;;14.90;10.50;;;;;;;;;;5065007;28;20207;-53
2023/04/21 05:17:33;;;;;;;17.83;13.60;;;;;;;;;;5058233;28;20181;-54
2023/04/21 05:19:59;;;;;;;17.70;14.00;;;;;;;;;;5065950;28;20575;-53
2023/04/21 05:22:25;;;;;;;16.87;12.83;;;;;;;;;;5063944;28;20212;-53
2023/04/21 05:24:52;;;;;;;16.10;12.40;;;;;;;;;;5063385;28;20191;-54
2023/04/21 05:27:18;;;;;;;16.20;12.73;;;;;;;;;;5071457;28;20203;-54
2023/04/21 05:29:44;;;;;;;14.13;11.37;;;;;;;;;;5061854;28;20176;-54
2023/04/21 05:32:11;;;;;;;14.00;11.97;;;;;;;;;;5060189;28;20243;-53
2023/04/21 05:34:38;;;;;;;14.80;12.13;;;;;;;;;;5065489;28;20184;-53
2023/04/21 05:37:04;;;;;;;13.83;11.77;;;;;;;;;;5070365;28;20184;-54
2023/04/21 05:39:30;;;;;;;13.47;10.87;;;;;;;;;;5060749;28;20184;-53
2023/04/21 05:41:57;;;;;;;16.33;11.70;;;;;;;;;;5065725;28;20184;-55
2023/04/21 05:44:24;;;;;;;16.13;11.23;;;;;;;;;;5068692;28;20534;-53
2023/04/21 05:46:50;;;;;;;14.37;12.10;;;;;;;;;;5067724;28;20644;-53
2023/04/21 05:49:16;;;;;;;15.80;11.77;;;;;;;;;;5063760;28;20619;-54
2023/04/21 05:51:42;;;;;;;15.27;12.20;;;;;;;;;;5071012;28;20195;-54
2023/04/21 05:54:09;;;;;;;15.50;11.60;;;;;;;;;;5045001;28;20331;-54
2023/04/21 05:56:35;;;;;;;14.60;11.57;;;;;;;;;;5070299;28;20572;-54
2023/04/21 05:59:02;;;;;;;13.87;11.37;;;;;;;;;;5062958;28;20184;-54
2023/04/21 06:01:29;;;;;;;13.03;10.83;;;;;;;;;;5064851;28;20219;-54
2023/04/21 06:03:55;;;;;;;14.10;10.83;;;;;;;;;;5063040;28;20590;-55
2023/04/21 06:06:21;;;;;;;13.67;11.20;;;;;;;;;;5071054;28;20215;-54
2023/04/21 06:08:50;;;;;;;15.13;11.17;;;;;;;;;;5058767;28;20177;-56
2023/04/21 06:11:16;;;;;;;14.13;9.97;;;;;;;;;;5061078;28;20200;-55
2023/04/21 06:13:42;;;;;;;13.17;10.57;;;;;;;;;;5061035;28;20192;-54
2023/04/21 06:16:09;;;;;;;14.10;11.13;;;;;;;;;;5061378;28;20191;-54
2023/04/21 06:18:35;;;;;;;12.83;10.20;;;;;;;;;;5059198;28;20173;-55
2023/04/21 06:21:02;;;;;;;11.47;10.23;;;;;;;;;;5048479;28;20238;-53
2023/04/21 06:23:28;;;;;;;14.87;10.67;;;;;;;;;;5060004;28;20319;-54
2023/04/21 06:26:03;;;;;;;12.60;9.87;;;;;;;;;;5067921;28;20176;-53
2023/04/21 06:28:29;;;;;;;12.67;10.33;;;;;;;;;;5068574;28;20188;-53
2023/04/21 06:30:56;;;;;;;13.07;10.47;;;;;;;;;;5061704;28;20576;-53
2023/04/21 06:33:25;;;;;;;12.87;10.10;;;;;;;;;;5043259;28;20251;-53
2023/04/21 06:35:52;;;;;;;12.50;9.93;;;;;;;;;;5067195;28;20181;-53
2023/04/21 06:38:18;;;;;;;11.83;9.57;;;;;;;;;;5064118;28;20668;-53
2023/04/21 06:40:44;;;;;;;10.53;9.40;;;;;;;;;;5049771;28;20227;-54
2023/04/21 06:43:10;;;;;;;12.13;10.03;;;;;;;;;;5065625;28;20187;-53
2023/04/21 06:45:36;;;;;;;11.60;10.03;;;;;;;;;;5065112;28;20181;-53
2023/04/21 06:48:03;;;;;;;12.90;9.13;;;;;;;;;;5060103;28;20211;-53
2023/04/21 06:50:29;;;;;;;13.27;10.07;;;;;;;;;;5045018;28;20181;-53
2023/04/21 06:52:55;;;;;;;11.50;9.83;;;;;;;;;;5064047;28;20197;-53
2023/04/21 06:55:21;;;;;;;13.43;10.33;;;;;;;;;;5065993;28;20215;-53
2023/04/21 06:57:47;;;;;;;11.83;9.37;;;;;;;;;;5063093;28;20214;-53
2023/04/21 07:00:14;;;;;;;12.27;9.87;;;;;;;;;;5063921;28;20169;-54
2023/04/21 07:02:43;;;;;;;15.60;9.60;;;;;;;;;;5066117;28;20215;-54
2023/04/21 07:05:09;;;;;;;13.63;10.43;;;;;;;;;;5065205;28;20188;-54
2023/04/21 07:07:36;;;;;;;15.80;10.03;;;;;;;;;;5068325;28;20254;-53
2023/04/21 07:10:02;;;;;;;11.63;10.10;;;;;;;;;;5059223;28;20177;-53
2023/04/21 07:12:28;;;;;;;9.73;8.67;;;;;;;;;;5063245;28;20212;-53
2023/04/21 07:14:55;;;;;;;13.87;9.57;;;;;;;;;;5065846;28;20177;-54
2023/04/21 07:17:21;;;;;;;11.37;9.83;;;;;;;;;;5047487;28;20180;-53
2023/04/21 07:19:47;;;;;;;13.60;10.90;;;;;;;;;;5057607;28;20656;-54
2023/04/21 07:22:14;;;;;;;13.20;10.80;;;;;;;;;;5066853;28;20177;-55
2023/04/21 07:24:40;;;;;;;13.50;11.17;;;;;;;;;;5067281;28;20176;-54
2023/04/21 07:27:07;;;;;;;11.60;10.40;;;;;;;;;;5067126;28;20214;-53
2023/04/21 07:29:33;;;;;;;10.57;9.47;;;;;;;;;;5063810;28;20770;-53
2023/04/21 07:31:59;;;;;;;11.90;9.80;;;;;;;;;;5069355;28;20173;-53
2023/04/21 07:34:25;;;;;;;14.10;9.53;;;;;;;;;;5065784;28;20640;-53
2023/04/21 07:36:52;;;;;;;11.03;9.13;;;;;;;;;;5068569;28;20655;-55
2023/04/21 07:39:18;;;;;;;13.10;10.53;;;;;;;;;;5044899;28;20264;-53
2023/04/21 07:41:45;;;;;;;10.60;9.27;;;;;;;;;;5063657;28;20165;-53
2023/04/21 07:44:11;;;;;;;10.50;9.40;;;;;;;;;;5058397;28;21220;-53
2023/04/21 07:46:37;;;;;;;10.50;9.40;;;;;;;;;;5066967;28;20252;-53
2023/04/21 07:49:04;;;;;;;11.10;9.60;;;;;;;;;;5065410;28;20176;-53
2023/04/21 07:51:30;;;;;;;9.57;8.53;;;;;;;;;;5064654;28;20172;-53
2023/04/21 07:53:57;;;;;;;12.07;10.23;;;;;;;;;;5061916;28;20441;-55
2023/04/21 07:56:23;;;;;;;10.13;9.13;;;;;;;;;;5066089;28;20172;-54
2023/04/21 07:58:49;;;;;;;11.23;9.00;;;;;;;;;;5044101;28;20180;-54
2023/04/21 08:01:16;;;;;;;10.63;8.97;;;;;;;;;;5064844;28;20191;-54
2023/04/21 08:03:43;;;;;;;14.03;9.87;;;;;;;;;;5065219;28;20570;-59
2023/04/21 08:06:09;;;;;;;11.03;8.93;;;;;;;;;;5060302;28;20215;-54
2023/04/21 08:08:35;;;;;;;12.23;9.90;;;;;;;;;;5063724;28;20176;-54
2023/04/21 08:11:02;;;;;;;11.43;9.33;;;;;;;;;;5057475;28;20184;-53
2023/04/21 08:13:28;;;;;;;10.90;9.40;;;;;;;;;;5062302;28;20205;-54
2023/04/21 08:16:03;;;;;;;9.57;8.33;;;;;;;;;;5054144;28;20175;-54
2023/04/21 08:18:30;;;;;;;9.73;7.97;;;;;;;;;;5064275;28;20635;-54
2023/04/21 08:20:56;;;;;;;10.30;8.70;;;;;;;;;;5070856;28;20223;-54
2023/04/21 08:23:23;;;;;;;16.23;11.40;;;;;;;;;;5068735;28;20224;-54
2023/04/21 08:25:49;;;;;;;12.33;10.80;;;;;;;;;;5072182;28;20180;-54
2023/04/21 08:28:15;;;;;;;13.43;10.77;;;;;;;;;;5065849;28;20614;-54
2023/04/21 08:30:41;;;;;;;12.60;10.67;;;;;;;;;;5058830;28;20578;-55
2023/04/21 08:33:12;;;;;;;10.47;9.20;;;;;;;;;;5064791;28;20260;-55
2023/04/21 08:35:39;;;;;;;12.77;11.10;;;;;;;;;;5069853;28;20207;-55
2023/04/21 08:38:07;;;;;;;13.47;10.80;;;;;;;;;;5063369;28;20652;-55
2023/04/21 08:40:34;;;;;;;11.03;9.23;;;;;;;;;;5065262;28;20172;-54
2023/04/21 08:43:01;;;;;;;13.17;11.07;;;;;;;;;;5064357;28;20188;-54
2023/04/21 08:45:30;;;;;;;12.37;10.17;;;;;;;;;;5070898;28;20181;-55
2023/04/21 08:47:59;;;;;;;11.53;9.67;;;;;;;;;;5063929;28;20659;-55
2023/04/21 08:50:27;;;;;;;13.77;11.70;;;;;;;;;;5070223;28;20750;-55
2023/04/21 08:52:54;;;;;;;13.73;10.60;;;;;;;;;;5060291;28;20204;-54
2023/04/21 08:55:24;;;;;;;11.57;10.23;;;;;;;;;;5062272;28;20181;-54
2023/04/21 08:57:51;;;;;;;13.37;10.93;;;;;;;;;;5062625;28;20220;-55
2023/04/21 09:00:18;;;;;;;12.97;10.87;;;;;;;;;;5064097;28;20177;-57
2023/04/21 09:02:54;;;;;;;13.27;11.07;;;;;;;;;;5064919;28;20180;-55
2023/04/21 09:05:25;;;;;;;17.90;13.30;;;;;;;;;;5066995;28;20169;-55
2023/04/21 09:07:52;;;;;;;13.57;11.73;;;;;;;;;;5061988;28;20194;-54
2023/04/21 09:10:23;;;;;;;13.97;12.23;;;;;;;;;;5048401;28;20206;-55
2023/04/21 09:12:52;;;;;;;13.43;10.77;;;;;;;;;;5061020;28;20214;-55
2023/04/21 09:15:20;;;;;;;15.20;12.30;;;;;;;;;;5065993;28;20375;-56
2023/04/21 09:17:47;;;;;;;15.23;12.43;;;;;;;;;;5069884;28;20717;-56
2023/04/21 09:20:14;;;;;;;15.40;12.00;;;;;;;;;;5062791;28;20176;-55
2023/04/21 09:22:40;;;;;;;14.97;12.40;;;;;;;;;;5073554;28;20227;-55
2023/04/21 09:25:07;;;;;;;14.90;12.50;;;;;;;;;;5068686;28;20188;-55
2023/04/21 09:27:36;;;;;;;14.77;12.07;;;;;;;;;;5062379;28;20184;-55
2023/04/21 09:30:06;;;;;;;14.57;12.30;;;;;;;;;;5082241;28;20583;-55
2023/04/21 09:32:36;;;;;;;14.93;12.57;;;;;;;;;;5066288;28;20294;-55
2023/04/21 09:35:03;;;;;;;15.83;12.53;;;;;;;;;;5070627;28;20168;-55
2023/04/21 09:37:33;;;;;;;13.23;11.03;;;;;;;;;;5079945;28;20550;-55
2023/04/21 09:39:59;;;;;;;13.57;11.67;;;;;;;;;;5071521;28;20644;-55
2023/04/21 09:42:29;;;;;;;13.70;10.97;;;;;;;;;;5067511;28;20201;-54
2023/04/21 09:44:56;;;;;;;13.73;11.23;;;;;;;;;;5078139;28;20260;-53
2023/04/21 09:47:23;;;;;;;15.53;12.90;;;;;;;;;;5050823;28;20515;-54
2023/04/21 09:49:53;;;;;;;14.53;12.17;;;;;;;;;;5070623;28;20174;-54
2023/04/21 09:52:20;;;;;;;13.93;12.43;;;;;;;;;;5067787;28;20226;-54
2023/04/21 09:54:57;;;;;;;13.97;12.00;;;;;;;;;;5069165;28;20648;-55
2023/04/21 09:57:26;;;;;;;14.77;11.63;;;;;;;;;;5069057;28;20689;-54
2023/04/21 10:00:12;;;;;;;12.77;11.33;;;;;;;;;;5067755;28;20164;-55
2023/04/21 10:02:48;;;;;;;14.87;11.57;;;;;;;;;;5065418;28;20191;-55
2023/04/21 10:05:14;;;;;;;16.40;11.87;;;;;;;;;;5059127;28;20576;-55
2023/04/21 10:07:40;;;;;;;15.83;12.93;;;;;;;;;;5057555;28;20173;-55
2023/04/21 10:10:16;;;;;;;13.53;11.47;;;;;;;;;;5058211;28;20557;-55
2023/04/21 10:12:43;;;;;;;13.23;11.83;;;;;;;;;;5067738;28;20616;-55
2023/04/21 10:15:29;;;;;;;16.90;11.20;;;;;;;;;;5065546;28;20674;-54
2023/04/21 10:18:10;;;;;;;13.37;10.83;;;;;;;;;;5063123;28;20255;-54
2023/04/21 10:20:51;;;;;;;15.33;12.90;;;;;;;;;;5074719;28;20938;-55
2023/04/21 10:23:30;;;;;;;14.30;12.00;;;;;;;;;;5051293;28;20225;-54
2023/04/21 10:26:28;;;;;;;13.07;11.63;;;;;;;;;;5048515;28;20197;-54
2023/04/21 10:28:55;;;;;;;13.73;10.67;;;;;;;;;;5014408;28;20262;-55
2023/04/21 10:31:31;;;;;;;13.93;12.30;;;;;;;;;;5045583;28;20177;-54
2023/04/21 10:34:07;;;;;;;14.00;11.93;;;;;;;;;;5049466;28;20266;-53
2023/04/21 10:36:53;;;;;;;14.93;11.97;;;;;;;;;;5035940;28;20665;-54
2023/04/21 10:39:30;;;;;;;13.53;11.60;;;;;;;;;;5034573;28;20189;-54
2023/04/21 10:42:19;;;;;;;13.20;11.43;;;;;;;;;;5046249;28;20656;-55
2023/04/21 10:44:54;;;;;;;15.33;11.67;;;;;;;;;;5043519;28;20731;-54
2023/04/21 10:47:26;;;;;;;13.10;11.00;;;;;;;;;;5041557;28;20179;-55
2023/04/21 10:49:53;;;;;;;14.60;12.20;;;;;;;;;;5046281;28;20200;-54
2023/04/21 10:52:20;;;;;;;13.90;12.00;;;;;;;;;;5046283;28;20180;-55
2023/04/21 10:54:46;;;;;;;14.23;12.33;;;;;;;;;;5044712;28;20231;-54
2023/04/21 10:57:14;;;;;;;14.97;12.57;;;;;;;;;;5042265;28;20588;-55
2023/04/21 10:59:40;;;;;;;15.63;13.07;;;;;;;;;;5043557;28;20235;-55
2023/04/21 11:02:07;;;;;;;14.33;11.77;;;;;;;;;;5044757;28;20177;-55
2023/04/21 11:04:34;;;;;;;15.53;13.13;;;;;;;;;;5045512;28;20729;-55
2023/04/21 11:07:13;;;;;;;15.60;12.87;;;;;;;;;;5052187;28;20211;-55
2023/04/21 11:09:41;;;;;;;17.87;13.47;;;;;;;;;;5049832;28;20281;-55
2023/04/21 11:12:08;;;;;;;13.70;11.57;;;;;;;;;;5046910;28;20184;-55
2023/04/21 11:14:36;;;;;;;13.77;11.87;;;;;;;;;;5028236;28;20173;-55
2023/04/21 11:17:02;;;;;;;13.23;11.73;;;;;;;;;;5046821;28;20197;-55
2023/04/21 11:19:31;;;;;;;14.95;12.35;;;;;;;;;;5045346;28;20185;-55
2023/04/21 11:21:58;;;;;;;13.80;11.70;;;;;;;;;;5044234;28;20382;-60
2023/04/21 11:24:24;;;;;;;14.10;12.17;;;;;;;;;;5056363;28;20220;-54
2023/04/21 11:26:51;;;;;;;15.50;11.90;;;;;;;;;;5081550;28;20444;-55
2023/04/21 11:29:17;;;;;;;14.20;12.17;;;;;;;;;;5063402;28;20180;-55
2023/04/21 11:31:47;;;;;;;13.57;11.90;;;;;;;;;;5067542;28;20598;-55
2023/04/21 11:34:15;;;;;;;16.43;13.40;;;;;;;;;;5067368;28;20211;-55
2023/04/21 11:36:44;;;;;;;13.77;12.20;;;;;;;;;;5064530;28;20169;-55
2023/04/21 11:39:12;;;;;;;16.77;14.13;;;;;;;;;;5061695;28;20172;-55
2023/04/21 11:41:39;;;;;;;16.70;13.03;;;;;;;;;;5064349;28;20204;-55
2023/04/21 11:44:06;;;;;;;15.90;13.90;;;;;;;;;;5064614;28;20173;-55
2023/04/21 11:46:32;;;;;;;17.63;15.00;;;;;;;;;;5060938;28;20185;-55
2023/04/21 11:48:58;;;;;;;16.07;13.80;;;;;;;;;;5062793;28;20199;-56
2023/04/21 11:51:26;;;;;;;15.80;12.50;;;;;;;;;;5047914;28;20194;-59
2023/04/21 11:53:52;;;;;;;19.03;13.63;;;;;;;;;;5060276;28;20200;-55
2023/04/21 11:56:23;;;;;;;15.20;13.60;;;;;;;;;;5048271;28;20768;-54
2023/04/21 11:58:51;;;;;;;16.70;13.77;;;;;;;;;;5062610;28;20176;-54
2023/04/21 12:01:17;;;;;;;16.23;14.57;;;;;;;;;;5074020;28;20179;-54
2023/04/21 12:03:54;;;;;;;14.73;12.63;;;;;;;;;;5053607;28;20177;-54
2023/04/21 12:06:24;;;;;;;15.67;12.63;;;;;;;;;;5053452;28;20179;-54
2023/04/21 12:09:00;;;;;;;16.87;12.90;;;;;;;;;;5067956;28;20180;-55
2023/04/21 12:11:30;;;;;;;14.97;12.73;;;;;;;;;;5069970;28;20202;-55
2023/04/21 12:13:57;;;;;;;14.20;12.27;;;;;;;;;;5069365;28;20279;-55
2023/04/21 12:16:27;;;;;;;14.10;12.47;;;;;;;;;;5070009;28;20475;-54
2023/04/21 12:18:56;;;;;;;16.47;14.67;;;;;;;;;;5068539;28;20184;-55
2023/04/21 12:21:29;;;;;;;14.93;13.00;;;;;;;;;;5069883;28;20182;-55
2023/04/21 12:23:56;;;;;;;15.47;13.37;;;;;;;;;;5068513;28;20216;-54
2023/04/21 12:26:25;;;;;;;15.03;12.30;;;;;;;;;;5070134;28;20164;-54
2023/04/21 12:28:51;;;;;;;15.40;12.23;;;;;;;;;;5069324;28;20164;-54
2023/04/21 12:31:18;;;;;;;14.73;12.60;;;;;;;;;;5070112;28;20153;-54
2023/04/21 12:33:44;;;;;;;15.40;13.00;;;;;;;;;;5068423;28;20932;-54
2023/04/21 12:36:11;;;;;;;14.57;12.43;;;;;;;;;;5051932;28;20243;-55
2023/04/21 12:38:37;;;;;;;14.93;12.70;;;;;;;;;;5069390;28;20245;-55
2023/04/21 12:41:03;;;;;;;14.37;12.80;;;;;;;;;;5069550;28;20248;-55
2023/04/21 12:43:30;;;;;;;16.53;12.57;;;;;;;;;;5069114;28;20203;-55
2023/04/21 12:45:56;;;;;;;12.83;11.53;;;;;;;;;;5069618;28;20613;-55
2023/04/21 12:48:23;;;;;;;15.07;13.37;;;;;;;;;;5067889;28;20208;-55
2023/04/21 12:50:49;;;;;;;12.83;11.53;;;;;;;;;;5069655;28;20183;-56
2023/04/21 12:53:16;;;;;;;15.73;11.53;;;;;;;;;;5068836;28;20189;-54
2023/04/21 12:55:42;;;;;;;14.47;12.57;;;;;;;;;;5068131;28;20165;-55
2023/04/21 12:58:11;;;;;;;14.47;12.33;;;;;;;;;;5069312;28;20618;-55
2023/04/21 13:00:37;;;;;;;14.70;11.93;;;;;;;;;;5055381;28;20183;-55
2023/04/21 13:03:04;;;;;;;15.17;12.10;;;;;;;;;;5071787;28;20162;-54
2023/04/21 13:05:31;;;;;;;12.67;11.37;;;;;;;;;;5073437;28;20259;-55
2023/04/21 13:07:57;;;;;;;12.30;11.10;;;;;;;;;;5072816;28;20168;-56
2023/04/21 13:10:24;;;;;;;14.27;11.23;;;;;;;;;;5072676;28;20717;-55
2023/04/21 13:12:50;;;;;;;12.37;11.17;;;;;;;;;;5072276;28;20261;-55
2023/04/21 13:15:17;;;;;;;12.27;10.90;;;;;;;;;;5073170;28;20194;-59
2023/04/21 13:17:43;;;;;;;12.40;10.87;;;;;;;;;;5072779;28;20835;-56
2023/04/21 13:20:11;;;;;;;12.40;10.23;;;;;;;;;;5071930;28;20166;-56
2023/04/21 13:22:37;;;;;;;12.57;10.73;;;;;;;;;;5072426;28;20224;-56
2023/04/21 13:25:04;;;;;;;13.20;11.90;;;;;;;;;;5072102;28;20169;-55
2023/04/21 13:27:32;;;;;;;13.77;10.83;;;;;;;;;;5072726;28;20204;-55
2023/04/21 13:29:58;;;;;;;12.07;10.33;;;;;;;;;;5072644;28;20270;-55
2023/04/21 13:32:25;;;;;;;11.93;10.20;;;;;;;;;;5072887;28;20157;-55
2023/04/21 13:34:53;;;;;;;11.27;9.93;;;;;;;;;;5071405;28;20175;-55
2023/04/21 13:40:23;;;;;;;11.80;10.23;;;;;;;;;;5071278;28;20223;-56
2023/04/21 13:42:50;;;;;;;11.70;10.37;;;;;;;;;;5071698;28;20176;-56
2023/04/21 13:45:16;;;;;;;11.07;9.97;;;;;;;;;;5072304;28;20211;-55
2023/04/21 13:47:43;;;;;;;10.87;9.57;;;;;;;;;;5072435;28;20220;-55
2023/04/21 13:50:09;;;;;;;11.50;9.90;;;;;;;;;;5064961;28;20197;-54
2023/04/21 13:52:36;;;;;;;10.33;9.30;;;;;;;;;;5053975;28;20746;-54
2023/04/21 13:55:04;;;;;;;11.70;9.80;;;;;;;;;;5071453;28;20552;-54
2023/04/21 13:57:30;;;;;;;12.20;9.80;;;;;;;;;;5072241;28;20686;-54
2023/04/21 13:59:56;;;;;;;11.73;10.33;;;;;;;;;;5071659;28;20636;-54
2023/04/21 14:02:24;;;;;;;11.13;10.03;;;;;;;;;;5072167;28;20163;-56
2023/04/21 14:04:51;;;;;;;10.37;9.37;;;;;;;;;;5052626;28;20580;-55
2023/04/21 14:07:18;;;;;;;10.17;9.17;;;;;;;;;;5071858;28;20201;-55
2023/04/21 14:09:49;;;;;;;10.10;8.73;;;;;;;;;;5070151;28;20286;-55
2023/04/21 14:12:16;;;;;;;9.23;8.33;;;;;;;;;;5071419;28;20202;-53
2023/04/21 14:14:42;;;;;;;9.23;8.33;;;;;;;;;;5071194;28;20173;-54
2023/04/21 14:17:08;;;;;;;8.87;7.97;;;;;;;;;;5070845;28;20183;-54
2023/04/21 14:19:35;;;;;;;9.73;8.73;;;;;;;;;;5070463;28;20246;-53
2023/04/21 14:22:02;;;;;;;9.30;8.30;;;;;;;;;;5071247;28;20267;-54
2023/04/21 14:24:29;;;;;;;9.23;8.30;;;;;;;;;;5071229;28;20169;-54
2023/04/21 14:26:56;;;;;;;8.70;7.63;;;;;;;;;;5069659;28;20187;-55
2023/04/21 14:29:22;;;;;;;8.80;7.90;;;;;;;;;;5070802;28;20166;-57